createdAt,value
2023-04-14T00:00:53.314Z,10.48
2023-04-14T00:03:21.555Z,8.90
2023-04-14T00:05:48.495Z,10.52
2023-04-14T00:08:17.959Z,9.85
2023-04-14T00:10:44.476Z,10.73
2023-04-14T00:13:11.222Z,11.40
2023-04-14T00:15:39.673Z,10.13
2023-04-14T00:18:06.336Z,9.98
2023-04-14T00:20:33.110Z,8.35
2023-04-14T00:22:59.722Z,10.77
2023-04-14T00:25:26.553Z,9.20
2023-04-14T00:27:53.358Z,10.07
2023-04-14T00:30:20.308Z,9.68
2023-04-14T00:32:47.066Z,10.15
2023-04-14T00:35:13.628Z,8.90
2023-04-14T00:37:40.312Z,10.20
2023-04-14T00:40:17.488Z,8.60
2023-04-14T00:42:48.724Z,9.77
2023-04-14T00:45:20.861Z,9.68
2023-04-14T00:47:50.610Z,12.15
2023-04-14T00:50:18.745Z,9.55
2023-04-14T00:52:49.185Z,8.82
2023-04-14T00:55:23.998Z,8.60
2023-04-14T00:57:51.451Z,11.57
2023-04-14T01:00:19.661Z,10.18
2023-04-14T01:02:46.750Z,9.48
2023-04-14T01:05:13.875Z,9.23
2023-04-14T01:07:41.412Z,12.20
2023-04-14T01:10:08.414Z,10.85
2023-04-14T01:12:57.716Z,12.43
2023-04-14T01:15:45.509Z,10.93
2023-04-14T01:18:35.127Z,10.27
2023-04-14T01:21:12.031Z,11.98
2023-04-14T01:23:59.634Z,15.43
2023-04-14T01:26:31.217Z,12.18
2023-04-14T01:29:27.604Z,12.18
2023-04-14T01:32:01.944Z,11.63
2023-04-14T01:34:51.682Z,13.70
2023-04-14T01:37:26.361Z,10.02
2023-04-14T01:39:54.297Z,11.27
2023-04-14T01:42:25.219Z,8.90
2023-04-14T01:44:57.023Z,9.98
2023-04-14T01:49:53.543Z,10.40
2023-04-14T01:52:20.832Z,11.20
2023-04-14T01:54:50.789Z,11.45
2023-04-14T01:57:22.947Z,12.00
2023-04-14T01:59:53.641Z,11.35
2023-04-14T02:02:21.569Z,10.57
2023-04-14T02:04:50.683Z,11.40
2023-04-14T02:07:19.678Z,10.77
2023-04-14T02:09:48.212Z,9.45
2023-04-14T02:12:14.928Z,12.43
2023-04-14T02:14:43.309Z,12.43
2023-04-14T02:17:25.771Z,9.55
2023-04-14T02:23:56.004Z,8.93
2023-04-14T02:26:25.132Z,10.13
2023-04-14T02:29:03.001Z,9.32
2023-04-14T02:35:23.973Z,8.82
2023-04-14T02:41:36.970Z,9.07
2023-04-14T02:44:27.235Z,10.95
2023-04-14T02:47:25.794Z,8.82
2023-04-14T02:49:54.837Z,9.57
2023-04-14T02:52:28.493Z,9.32
2023-04-14T02:54:56.912Z,8.02
2023-04-14T02:57:25.664Z,8.50
2023-04-14T02:59:52.989Z,8.55
2023-04-14T03:06:07.207Z,7.57
2023-04-14T03:09:15.994Z,9.93
2023-04-14T03:12:26.393Z,8.77
2023-04-14T03:15:00.311Z,10.13
2023-04-14T03:17:27.869Z,11.95
2023-04-14T03:19:54.614Z,8.38
2023-04-14T03:22:22.450Z,9.25
2023-04-14T03:24:50.487Z,6.95
2023-04-14T03:27:22.896Z,8.60
2023-04-14T03:29:52.669Z,8.57
2023-04-14T03:32:21.497Z,8.30
2023-04-14T03:34:51.907Z,14.80
2023-04-14T03:37:22.605Z,8.07
2023-04-14T03:39:52.409Z,8.52
2023-04-14T03:42:24.637Z,9.00
2023-04-14T03:44:54.341Z,8.00
2023-04-14T03:47:26.553Z,8.57
2023-04-14T03:50:57.523Z,10.27
2023-04-14T03:53:25.563Z,7.53
2023-04-14T03:55:57.064Z,8.30
2023-04-14T03:58:30.689Z,8.50
2023-04-14T04:01:18.048Z,8.73
2023-04-14T04:03:46.572Z,8.52
2023-04-14T04:06:13.471Z,8.45
2023-04-14T04:08:41.717Z,8.13
2023-04-14T04:11:08.736Z,9.70
2023-04-14T04:13:37.094Z,9.07
2023-04-14T04:19:22.389Z,7.20
2023-04-14T04:21:57.166Z,6.68
2023-04-14T04:24:50.348Z,8.77
2023-04-14T04:27:27.200Z,8.38
2023-04-14T04:32:24.042Z,7.00
2023-04-14T04:34:53.155Z,8.32
2023-04-14T04:37:32.152Z,9.98
2023-04-14T04:40:35.920Z,9.77
2023-04-14T04:43:02.811Z,6.57
2023-04-14T04:46:00.924Z,8.07
2023-04-14T04:48:27.506Z,11.25
2023-04-14T04:50:54.244Z,10.57
2023-04-14T04:53:21.109Z,10.32
2023-04-14T04:55:50.218Z,9.98
2023-04-14T04:58:17.212Z,10.77
2023-04-14T05:00:44.109Z,7.22
2023-04-14T05:03:18.939Z,9.77
2023-04-14T05:05:45.740Z,10.90
2023-04-14T05:08:15.962Z,7.20
2023-04-14T05:10:42.681Z,7.85
2023-04-14T05:13:09.195Z,7.70
2023-04-14T05:15:35.866Z,7.28
2023-04-14T05:18:02.653Z,7.38
2023-04-14T05:20:29.485Z,7.50
2023-04-14T05:22:56.345Z,8.45
2023-04-14T05:25:23.019Z,9.27
2023-04-14T05:27:49.846Z,7.47
2023-04-14T05:30:17.591Z,6.82
2023-04-14T05:32:47.450Z,10.05
2023-04-14T05:35:23.985Z,9.25
2023-04-14T05:37:50.626Z,7.68
2023-04-14T05:40:18.158Z,8.25
2023-04-14T05:42:45.067Z,7.40
2023-04-14T05:45:15.835Z,8.45
2023-04-14T05:47:48.240Z,6.75
2023-04-14T05:53:30.991Z,10.98
2023-04-14T05:55:59.007Z,12.98
2023-04-14T05:58:29.649Z,7.68
2023-04-14T06:00:56.268Z,8.85
2023-04-14T06:03:23.165Z,9.48
2023-04-14T06:06:17.815Z,10.73
2023-04-14T06:09:04.821Z,8.30
2023-04-14T06:11:34.095Z,7.28
2023-04-14T06:14:03.020Z,8.75
2023-04-14T06:16:29.990Z,7.80
2023-04-14T06:18:57.036Z,9.05
2023-04-14T06:21:23.572Z,9.05
2023-04-14T06:23:50.357Z,10.07
2023-04-14T06:26:17.051Z,9.75
2023-04-14T06:28:44.074Z,8.23
2023-04-14T06:31:13.489Z,8.27
2023-04-14T06:33:39.941Z,6.60
2023-04-14T06:36:07.028Z,7.20
2023-04-14T06:38:34.081Z,8.60
2023-04-14T06:41:01.458Z,10.63
2023-04-14T06:43:29.075Z,8.02
2023-04-14T06:45:55.994Z,7.82
2023-04-14T06:48:22.707Z,9.23
2023-04-14T06:50:59.664Z,10.95
2023-04-14T06:53:38.559Z,8.30
2023-04-14T06:56:13.129Z,10.13
2023-04-14T06:58:44.724Z,9.98
2023-04-14T07:03:48.081Z,8.70
2023-04-14T07:06:17.603Z,7.97
2023-04-14T07:08:53.990Z,10.10
2023-04-14T07:11:27.079Z,9.32
2023-04-14T07:14:08.866Z,8.80
2023-04-14T07:16:39.678Z,10.75
2023-04-14T07:19:12.541Z,9.70
2023-04-14T07:21:45.067Z,8.50
2023-04-14T07:24:37.550Z,8.98
2023-04-14T07:27:16.428Z,9.07
2023-04-14T07:29:53.149Z,8.27
2023-04-14T07:32:32.032Z,8.27
2023-04-14T07:35:04.086Z,11.68
2023-04-14T07:38:04.011Z,10.18
2023-04-14T07:40:45.465Z,10.52
2023-04-14T07:43:38.076Z,10.82
2023-04-14T07:46:39.607Z,8.23
2023-04-14T07:49:16.219Z,9.40
2023-04-14T07:52:15.938Z,11.75
2023-04-14T07:54:40.574Z,11.07
2023-04-14T07:57:10.081Z,11.80
2023-04-14T07:59:38.312Z,10.25
2023-04-14T08:02:05.024Z,8.15
2023-04-14T08:04:31.699Z,11.27
2023-04-14T08:07:05.070Z,9.57
2023-04-14T08:09:31.698Z,12.15
2023-04-14T08:11:58.771Z,10.63
2023-04-14T08:14:31.352Z,11.82
2023-04-14T08:16:58.390Z,9.55
2023-04-14T08:19:25.650Z,8.93
2023-04-14T08:21:52.174Z,15.48
2023-04-14T08:24:18.670Z,9.73
2023-04-14T08:26:46.089Z,10.65
2023-04-14T08:29:12.774Z,12.45
2023-04-14T08:31:39.383Z,11.57
2023-04-14T08:34:06.373Z,10.23
2023-04-14T08:36:33.416Z,11.30
2023-04-14T08:39:00.535Z,9.40
2023-04-14T08:41:32.371Z,9.55
2023-04-14T08:43:58.927Z,9.00
2023-04-14T08:46:27.651Z,8.20
2023-04-14T08:49:00.884Z,7.82
2023-04-14T08:51:39.503Z,8.02
2023-04-14T08:54:09.194Z,9.23
2023-04-14T08:56:43.128Z,17.90
2023-04-14T08:59:11.453Z,6.28
2023-04-14T09:01:38.940Z,7.97
2023-04-14T09:04:07.477Z,7.80
2023-04-14T09:06:35.002Z,6.18
2023-04-14T09:09:06.893Z,7.47
2023-04-14T09:11:33.862Z,7.80
2023-04-14T09:14:01.739Z,9.75
2023-04-14T09:16:29.122Z,10.45
2023-04-14T09:18:57.532Z,9.45
2023-04-14T09:21:54.528Z,8.45
2023-04-14T09:24:23.828Z,6.55
2023-04-14T09:26:52.008Z,7.55
2023-04-14T09:29:22.376Z,8.32
2023-04-14T09:31:50.813Z,8.27
2023-04-14T09:34:26.130Z,7.65
2023-04-14T09:37:05.726Z,7.80
2023-04-14T09:40:07.363Z,6.97
2023-04-14T09:42:39.881Z,7.50
2023-04-14T09:45:10.353Z,11.40
2023-04-14T09:47:40.411Z,9.32
2023-04-14T09:50:20.534Z,9.02
2023-04-14T09:52:51.974Z,7.15
2023-04-14T09:55:20.890Z,7.10
2023-04-14T09:57:48.628Z,6.63
2023-04-14T10:00:22.535Z,8.35
2023-04-14T10:02:56.350Z,7.22
2023-04-14T10:05:32.907Z,8.20
2023-04-14T10:08:05.556Z,8.70
2023-04-14T10:10:32.980Z,7.25
2023-04-14T10:13:02.543Z,9.35
2023-04-14T10:15:29.452Z,9.48
2023-04-14T10:17:56.565Z,7.10
2023-04-14T10:20:23.291Z,7.72
2023-04-14T10:22:50.695Z,6.72
2023-04-14T10:25:18.309Z,6.50
2023-04-14T10:27:45.227Z,6.53
2023-04-14T10:30:17.197Z,7.93
2023-04-14T10:32:46.063Z,8.95
2023-04-14T10:35:17.530Z,5.97
2023-04-14T10:37:52.080Z,6.68
2023-04-14T10:40:18.944Z,10.55
2023-04-14T10:42:56.556Z,7.78
2023-04-14T10:45:23.923Z,9.70
2023-04-14T10:47:51.365Z,7.63
2023-04-14T10:50:25.057Z,8.65
2023-04-14T10:52:58.904Z,9.93
2023-04-14T10:55:28.469Z,7.82
2023-04-14T10:58:08.908Z,9.10
2023-04-14T11:00:38.561Z,10.18
2023-04-14T11:03:11.134Z,9.10
2023-04-14T11:05:52.326Z,8.32
2023-04-14T11:08:33.852Z,8.75
2023-04-14T11:11:04.273Z,10.02
2023-04-14T11:13:32.894Z,7.72
2023-04-14T11:16:07.239Z,7.85
2023-04-14T11:18:42.770Z,8.95
2023-04-14T11:21:14.353Z,6.85
2023-04-14T11:23:42.014Z,6.53
2023-04-14T11:26:10.512Z,7.32
2023-04-14T11:28:39.496Z,7.32
2023-04-14T11:31:08.563Z,6.57
2023-04-14T11:33:37.325Z,7.30
2023-04-14T11:36:06.065Z,7.18
2023-04-14T11:38:35.592Z,7.30
2023-04-14T11:41:02.424Z,8.07
2023-04-14T11:43:30.966Z,7.70
2023-04-14T11:45:59.468Z,9.43
2023-04-14T11:48:28.178Z,6.72
2023-04-14T11:50:56.206Z,6.57
2023-04-14T11:53:29.362Z,6.55
2023-04-14T11:55:57.674Z,6.47
2023-04-14T11:58:26.672Z,8.18
2023-04-14T12:03:41.965Z,6.93
2023-04-14T12:06:09.135Z,5.32
2023-04-14T12:08:35.691Z,5.53
2023-04-14T12:11:15.321Z,6.95
2023-04-14T12:13:47.103Z,7.07
2023-04-14T12:16:17.846Z,7.57
2023-04-14T12:19:10.318Z,6.35
2023-04-14T12:21:40.075Z,7.85
2023-04-14T12:24:10.598Z,7.03
2023-04-14T12:26:38.078Z,9.07
2023-04-14T12:29:06.749Z,8.32
2023-04-14T12:31:43.847Z,8.02
2023-04-14T12:34:19.069Z,10.07
2023-04-14T12:36:51.426Z,8.00
2023-04-14T12:39:18.070Z,6.95
2023-04-14T12:41:44.687Z,7.38
2023-04-14T12:44:20.485Z,8.13
2023-04-14T12:46:56.321Z,10.98
2023-04-14T12:49:38.891Z,8.57
2023-04-14T12:52:07.997Z,6.97
2023-04-14T12:54:52.177Z,9.25
2023-04-14T12:57:22.095Z,8.77
2023-04-14T12:59:52.168Z,7.40
2023-04-14T13:02:19.171Z,7.45
2023-04-14T13:04:46.131Z,8.30
2023-04-14T13:07:12.657Z,7.10
2023-04-14T13:09:39.128Z,8.00
2023-04-14T13:12:06.170Z,7.78
2023-04-14T13:17:17.780Z,7.30
2023-04-14T13:19:45.071Z,6.78
2023-04-14T13:22:13.586Z,8.10
2023-04-14T13:24:40.986Z,9.32
2023-04-14T13:27:11.826Z,7.88
2023-04-14T13:29:39.634Z,10.27
2023-04-14T13:32:11.251Z,9.02
2023-04-14T13:34:39.024Z,9.50
2023-04-14T13:37:06.478Z,7.07
2023-04-14T13:39:33.152Z,8.00
2023-04-14T13:41:59.629Z,7.95
2023-04-14T13:44:26.272Z,8.10
2023-04-14T13:46:53.005Z,9.68
2023-04-14T13:49:20.213Z,7.15
2023-04-14T13:51:50.032Z,6.65
2023-04-14T13:54:17.379Z,8.80
2023-04-14T13:56:46.664Z,7.78
2023-04-14T13:59:16.089Z,5.40
2023-04-14T14:01:50.182Z,7.15
2023-04-14T14:04:16.857Z,6.30
2023-04-14T14:06:43.431Z,10.30
2023-04-14T14:09:10.150Z,6.90
2023-04-14T14:11:37.032Z,7.38
2023-04-14T14:14:04.156Z,7.88
2023-04-14T14:16:36.769Z,6.60
2023-04-14T14:19:05.500Z,7.93
2023-04-14T14:21:32.736Z,8.35
2023-04-14T14:23:59.543Z,7.28
2023-04-14T14:26:27.279Z,8.38
2023-04-14T14:28:55.155Z,8.90
2023-04-14T14:31:21.721Z,7.78
2023-04-14T14:33:51.303Z,7.32
2023-04-14T14:36:18.062Z,7.50
2023-04-14T14:38:44.600Z,7.53
2023-04-14T14:41:11.097Z,8.15
2023-04-14T14:43:38.165Z,7.45
2023-04-14T14:46:04.957Z,6.68
2023-04-14T14:48:34.562Z,7.15
2023-04-14T14:51:01.557Z,7.63
2023-04-14T14:53:28.093Z,7.45
2023-04-14T14:55:57.739Z,9.60
2023-04-14T14:58:24.671Z,8.98
2023-04-14T15:00:53.642Z,8.07
2023-04-14T15:03:20.805Z,7.80
2023-04-14T15:05:51.472Z,8.15
2023-04-14T15:08:19.144Z,7.60
2023-04-14T15:10:46.420Z,8.68
2023-04-14T15:13:13.151Z,10.50
2023-04-14T15:15:39.738Z,6.75
2023-04-14T15:18:07.326Z,8.23
2023-04-14T15:20:34.104Z,7.50
2023-04-14T15:23:00.862Z,7.65
2023-04-14T15:25:27.459Z,6.80
2023-04-14T15:27:54.523Z,8.27
2023-04-14T15:30:23.907Z,8.23
2023-04-14T15:32:51.656Z,7.90
2023-04-14T15:35:21.456Z,9.85
2023-04-14T15:37:48.375Z,8.77
2023-04-14T15:40:15.227Z,7.90
2023-04-14T15:42:41.977Z,7.25
2023-04-14T15:45:09.190Z,7.93
2023-04-14T15:47:36.703Z,10.93
2023-04-14T15:50:10.032Z,9.18
2023-04-14T15:52:40.923Z,8.18
2023-04-14T15:55:12.014Z,8.55
2023-04-14T15:57:51.452Z,9.93
2023-04-14T16:00:19.151Z,9.93
2023-04-14T16:02:46.648Z,8.32
2023-04-14T16:05:16.439Z,7.88
2023-04-14T16:07:44.086Z,8.90
2023-04-14T16:10:11.024Z,10.02
2023-04-14T16:12:37.585Z,9.50
2023-04-14T16:15:08.929Z,9.23
2023-04-14T16:17:52.559Z,7.78
2023-04-14T16:20:19.610Z,7.35
2023-04-14T16:22:47.144Z,8.63
2023-04-14T16:25:28.147Z,10.50
2023-04-14T16:27:54.781Z,8.38
2023-04-14T16:30:31.685Z,7.97
2023-04-14T16:32:59.057Z,7.28
2023-04-14T16:35:30.300Z,7.60
2023-04-14T16:37:58.662Z,7.80
2023-04-14T16:40:26.724Z,8.63
2023-04-14T16:42:55.838Z,8.00
2023-04-14T16:45:22.768Z,9.07
2023-04-14T16:47:49.529Z,8.77
2023-04-14T16:50:24.981Z,8.57
2023-04-14T16:53:06.915Z,8.57
2023-04-14T16:55:37.066Z,8.63
2023-04-14T16:58:03.679Z,8.80
2023-04-14T17:00:32.895Z,8.40
2023-04-14T17:02:59.926Z,9.70
2023-04-14T17:05:27.411Z,8.25
2023-04-14T17:07:56.871Z,10.00
2023-04-14T17:10:23.778Z,7.30
2023-04-14T17:12:50.536Z,10.18
2023-04-14T17:15:20.892Z,7.85
2023-04-14T17:17:47.727Z,8.43
2023-04-14T17:20:15.492Z,7.35
2023-04-14T17:22:43.363Z,8.43
2023-04-14T17:25:11.023Z,9.55
2023-04-14T17:27:40.418Z,15.45
2023-04-14T17:30:09.022Z,9.00
2023-04-14T17:32:37.571Z,10.07
2023-04-14T17:35:08.232Z,10.45
2023-04-14T17:37:35.529Z,7.78
2023-04-14T17:40:06.227Z,11.80
2023-04-14T17:42:35.085Z,14.95
2023-04-14T17:45:05.102Z,17.65
2023-04-14T17:47:38.421Z,18.27
2023-04-14T17:50:08.209Z,18.10
2023-04-14T17:52:47.660Z,22.40
2023-04-14T17:55:14.827Z,12.77
2023-04-14T17:57:50.748Z,11.50
2023-04-14T18:00:37.630Z,15.82
2023-04-14T18:03:09.248Z,15.75
2023-04-14T18:05:35.981Z,25.65
2023-04-14T18:08:02.789Z,12.45
2023-04-14T18:10:35.181Z,10.70
2023-04-14T18:13:01.762Z,10.00
2023-04-14T18:15:28.718Z,17.73
2023-04-14T18:17:55.699Z,11.07
2023-04-14T18:20:25.440Z,11.18
2023-04-14T18:22:57.692Z,14.43
2023-04-14T18:25:24.407Z,23.30
2023-04-14T18:30:20.830Z,13.20
2023-04-14T18:32:47.383Z,16.50
2023-04-14T18:35:16.011Z,13.85
2023-04-14T18:37:43.185Z,12.95
2023-04-14T18:40:11.660Z,12.77
2023-04-14T18:42:39.146Z,11.73
2023-04-14T18:45:06.148Z,12.30
2023-04-14T18:47:33.469Z,12.82
2023-04-14T18:50:00.352Z,12.55
2023-04-14T18:52:27.182Z,10.32
2023-04-14T18:54:53.924Z,13.32
2023-04-14T18:57:20.612Z,11.80
2023-04-14T18:59:48.000Z,15.90
2023-04-14T19:02:14.615Z,11.85
2023-04-14T19:04:41.454Z,12.07
2023-04-14T19:07:08.032Z,13.45
2023-04-14T19:09:36.201Z,12.25
2023-04-14T19:12:03.575Z,12.55
2023-04-14T19:14:30.387Z,13.88
2023-04-14T19:16:58.086Z,14.02
2023-04-14T19:19:29.010Z,14.23
2023-04-14T19:21:55.644Z,12.70
2023-04-14T19:24:22.297Z,13.43
2023-04-14T19:26:48.812Z,15.68
2023-04-14T19:29:15.944Z,15.32
2023-04-14T19:31:42.925Z,14.02
2023-04-14T19:34:09.404Z,15.82
2023-04-14T19:36:36.438Z,17.15
2023-04-14T19:39:03.956Z,16.10
2023-04-14T19:41:30.666Z,15.45
2023-04-14T19:43:57.220Z,15.88
2023-04-14T19:46:23.949Z,15.43
2023-04-14T19:48:50.791Z,17.90
2023-04-14T19:51:18.422Z,19.05
2023-04-14T19:53:46.345Z,16.50
2023-04-14T19:56:13.633Z,15.13
2023-04-14T19:58:40.649Z,19.27
2023-04-14T20:01:07.267Z,16.98
2023-04-14T20:03:35.338Z,16.95
2023-04-14T20:06:02.247Z,19.65
2023-04-14T20:08:28.776Z,16.65
2023-04-14T20:10:55.497Z,14.30
2023-04-14T20:13:25.049Z,18.38
2023-04-14T20:15:54.098Z,15.85
2023-04-14T20:18:22.430Z,16.55
2023-04-14T20:20:49.580Z,19.75
2023-04-14T20:23:16.213Z,17.90
2023-04-14T20:25:44.121Z,19.17
2023-04-14T20:28:10.912Z,16.30
2023-04-14T20:30:37.972Z,17.50
2023-04-14T20:33:05.719Z,17.42
2023-04-14T20:35:35.977Z,16.67
2023-04-14T20:38:02.758Z,16.73
2023-04-14T20:40:34.153Z,17.45
2023-04-14T20:43:04.838Z,20.13
2023-04-14T20:45:32.280Z,19.17
2023-04-14T20:48:02.320Z,18.33
2023-04-14T20:50:29.188Z,20.25
2023-04-14T20:52:55.885Z,17.58
2023-04-14T20:55:23.918Z,22.13
2023-04-14T20:57:53.924Z,18.75
2023-04-14T21:00:28.612Z,20.23
2023-04-14T21:03:03.595Z,20.98
2023-04-14T21:05:30.558Z,24.13
2023-04-14T21:07:57.265Z,20.67
2023-04-14T21:10:24.575Z,20.52
2023-04-14T21:15:29.632Z,22.08
2023-04-14T21:15:52.586Z,23.40
2023-04-14T21:18:23.036Z,18.80
2023-04-14T21:20:49.996Z,21.05
2023-04-14T21:26:28.515Z,20.75
2023-04-14T21:29:02.609Z,26.48
2023-04-14T21:31:32.547Z,22.33
2023-04-14T21:33:59.069Z,25.45
2023-04-14T21:36:25.720Z,22.50
2023-04-14T21:38:52.800Z,22.98
2023-04-14T21:41:19.984Z,28.45
2023-04-14T21:43:46.692Z,23.08
2023-04-14T21:46:13.993Z,24.83
2023-04-14T21:48:46.279Z,26.90
2023-04-14T21:51:12.814Z,22.33
2023-04-14T21:53:48.611Z,21.40
2023-04-14T21:56:15.820Z,25.77
2023-04-14T21:58:45.952Z,25.02
2023-04-14T22:01:12.697Z,24.90
2023-04-14T22:03:40.868Z,24.17
2023-04-14T22:06:08.104Z,22.50
2023-04-14T22:08:35.029Z,22.92
2023-04-14T22:11:03.521Z,25.80
2023-04-14T22:13:30.214Z,28.30
2023-04-14T22:15:56.776Z,22.27
2023-04-14T22:18:26.453Z,26.60
2023-04-14T22:20:53.378Z,24.83
2023-04-14T22:23:20.742Z,24.02
2023-04-14T22:25:47.983Z,23.80
2023-04-14T22:28:15.875Z,23.88
2023-04-14T22:30:42.590Z,26.20
2023-04-14T22:33:09.340Z,24.60
2023-04-14T22:35:35.861Z,28.65
2023-04-14T22:38:02.589Z,25.65
2023-04-14T22:40:34.638Z,28.05
2023-04-14T22:43:09.077Z,22.98
2023-04-14T22:45:40.048Z,28.80
2023-04-14T22:48:22.756Z,24.52
2023-04-14T22:50:49.762Z,25.50
2023-04-14T22:53:16.432Z,28.00
2023-04-14T22:55:44.360Z,24.63
2023-04-14T22:58:16.992Z,31.45
2023-04-14T23:00:46.250Z,25.13
2023-04-14T23:03:12.885Z,31.10
2023-04-14T23:05:39.569Z,27.42
2023-04-14T23:08:06.880Z,26.23
2023-04-14T23:10:33.717Z,28.42
2023-04-14T23:13:00.737Z,29.65
2023-04-14T23:15:27.730Z,33.30
2023-04-14T23:17:54.695Z,31.70
2023-04-14T23:20:21.963Z,30.90
2023-04-14T23:22:48.708Z,32.00
2023-04-14T23:25:15.804Z,28.30
2023-04-14T23:27:42.726Z,29.10
2023-04-14T23:30:11.452Z,31.20
2023-04-14T23:32:39.163Z,38.38
2023-04-14T23:35:07.289Z,33.10
2023-04-14T23:37:35.700Z,34.85
2023-04-14T23:40:04.314Z,32.65
2023-04-14T23:42:30.828Z,32.67
2023-04-14T23:45:02.225Z,39.03
2023-04-14T23:47:28.871Z,32.85
2023-04-14T23:49:55.449Z,34.35
2023-04-14T23:52:23.507Z,36.28
2023-04-14T23:54:50.140Z,37.03
2023-04-14T23:57:16.843Z,39.08
2023-04-14T23:59:43.672Z,36.55
